createdAt,value
2019-05-26T00:00:51.133Z,10.97
2019-05-26T00:01:51.087Z,10.97
2019-05-26T00:02:51.093Z,10.97
2019-05-26T00:03:51.086Z,10.95
2019-05-26T00:04:51.070Z,10.97
2019-05-26T00:05:51.059Z,10.97
2019-05-26T00:06:51.062Z,10.98
2019-05-26T00:07:51.024Z,11.04
2019-05-26T00:08:51.012Z,11.04
2019-05-26T00:09:51.004Z,11.05
2019-05-26T00:10:51.034Z,11.08
2019-05-26T00:11:50.992Z,11.08
2019-05-26T00:12:50.991Z,11.10
2019-05-26T00:13:50.963Z,11.13
2019-05-26T00:14:50.960Z,11.13
2019-05-26T00:15:50.986Z,11.12
2019-05-26T00:16:50.924Z,11.12
2019-05-26T00:17:50.909Z,11.10
2019-05-26T00:18:50.926Z,11.13
2019-05-26T00:19:50.897Z,11.10
2019-05-26T00:20:50.916Z,11.10
2019-05-26T00:21:50.854Z,11.10
2019-05-26T00:22:50.857Z,11.04
2019-05-26T00:23:50.858Z,11.00
2019-05-26T00:24:50.843Z,10.98
2019-05-26T00:25:50.849Z,10.98
2019-05-26T00:26:50.846Z,10.92
2019-05-26T00:27:50.808Z,10.92
2019-05-26T00:28:50.791Z,10.90
2019-05-26T00:29:50.767Z,10.89
2019-05-26T00:30:50.774Z,10.86
2019-05-26T00:31:50.782Z,10.83
2019-05-26T00:32:50.744Z,10.83
2019-05-26T00:33:50.747Z,10.82
2019-05-26T00:34:50.727Z,10.79
2019-05-26T00:35:50.705Z,10.79
2019-05-26T00:36:50.737Z,10.80
2019-05-26T00:37:50.967Z,10.76
2019-05-26T00:38:50.700Z,10.75
2019-05-26T00:39:50.666Z,10.71
2019-05-26T00:40:50.664Z,10.68
2019-05-26T00:41:50.683Z,10.72
2019-05-26T00:42:50.635Z,10.71
2019-05-26T00:43:50.631Z,10.71
2019-05-26T00:44:50.630Z,10.71
2019-05-26T00:45:50.613Z,10.71
2019-05-26T00:46:50.582Z,10.72
2019-05-26T00:47:50.587Z,10.75
2019-05-26T00:48:50.615Z,10.75
2019-05-26T00:49:50.588Z,10.75
2019-05-26T00:50:50.558Z,10.75
2019-05-26T00:51:50.541Z,10.75
2019-05-26T00:52:50.523Z,10.75
2019-05-26T00:53:50.503Z,10.76
2019-05-26T00:54:50.506Z,10.79
2019-05-26T00:55:50.500Z,10.82
2019-05-26T00:56:50.503Z,10.84
2019-05-26T00:57:50.463Z,10.84
2019-05-26T00:58:50.471Z,10.86
2019-05-26T00:59:50.448Z,10.84
2019-05-26T01:00:50.449Z,10.82
2019-05-26T01:01:50.451Z,10.79
2019-05-26T01:02:50.412Z,10.75
2019-05-26T01:03:50.407Z,10.75
2019-05-26T01:04:50.399Z,10.75
2019-05-26T01:05:50.385Z,10.75
2019-05-26T01:06:50.427Z,10.72
2019-05-26T01:08:05.212Z,10.71
2019-05-26T01:08:51.351Z,10.71
2019-05-26T01:09:50.349Z,10.69
2019-05-26T01:10:50.338Z,10.68
2019-05-26T01:11:50.352Z,10.69
2019-05-26T01:12:50.328Z,10.69
2019-05-26T01:13:50.305Z,10.71
2019-05-26T01:14:50.280Z,10.76
2019-05-26T01:15:50.277Z,10.80
2019-05-26T01:16:50.291Z,10.83
2019-05-26T01:17:50.279Z,10.84
2019-05-26T01:18:50.245Z,10.94
2019-05-26T01:19:50.231Z,11.13
2019-05-26T01:20:50.219Z,11.19
2019-05-26T01:21:50.247Z,11.35
2019-05-26T01:22:53.614Z,11.49
2019-05-26T01:23:50.190Z,11.68
2019-05-26T01:24:50.175Z,11.77
2019-05-26T01:25:50.155Z,11.88
2019-05-26T01:26:50.157Z,12.02
2019-05-26T01:27:50.175Z,12.14
2019-05-26T01:28:50.150Z,12.18
2019-05-26T01:29:50.126Z,12.21
2019-05-26T01:30:50.133Z,12.23
2019-05-26T01:31:50.093Z,12.29
2019-05-26T01:32:50.109Z,12.35
2019-05-26T01:33:50.059Z,12.36
2019-05-26T01:34:50.122Z,12.35
2019-05-26T01:35:50.039Z,12.33
2019-05-26T01:36:50.059Z,12.32
2019-05-26T01:37:50.061Z,12.36
2019-05-26T01:38:50.029Z,12.39
2019-05-26T01:39:50.008Z,12.44
2019-05-26T01:40:49.994Z,12.45
2019-05-26T01:41:49.965Z,12.44
2019-05-26T01:42:50.005Z,12.43
2019-05-26T01:43:49.960Z,12.43
2019-05-26T01:44:49.944Z,12.43
2019-05-26T01:45:49.944Z,12.40
2019-05-26T01:46:49.946Z,12.37
2019-05-26T01:47:49.934Z,12.36
2019-05-26T01:48:49.920Z,12.36
2019-05-26T01:49:49.902Z,12.36
2019-05-26T01:50:49.893Z,12.35
2019-05-26T01:51:49.882Z,12.33
2019-05-26T01:52:49.877Z,12.33
2019-05-26T01:53:49.851Z,12.35
2019-05-26T01:54:49.838Z,12.32
2019-05-26T01:55:49.827Z,12.32
2019-05-26T01:56:49.833Z,12.26
2019-05-26T01:57:49.833Z,12.23
2019-05-26T01:58:49.802Z,12.23
2019-05-26T01:59:49.783Z,12.21
2019-05-26T02:00:49.779Z,12.21
2019-05-26T02:01:49.751Z,12.23
2019-05-26T02:02:49.780Z,12.20
2019-05-26T02:03:49.732Z,12.18
2019-05-26T02:04:49.735Z,12.14
2019-05-26T02:05:49.726Z,12.12
2019-05-26T02:06:49.715Z,12.14
2019-05-26T02:07:49.700Z,12.12
2019-05-26T02:08:49.709Z,12.12
2019-05-26T02:09:49.673Z,12.12
2019-05-26T02:10:49.657Z,12.12
2019-05-26T02:11:49.659Z,12.11
2019-05-26T02:12:49.634Z,12.10
2019-05-26T02:13:49.650Z,12.10
2019-05-26T02:14:49.624Z,12.10
2019-05-26T02:15:49.612Z,12.14
2019-05-26T02:16:49.605Z,12.12
2019-05-26T02:17:49.642Z,12.14
2019-05-26T02:18:49.597Z,12.18
2019-05-26T02:19:49.578Z,12.18
2019-05-26T02:20:49.565Z,12.18
2019-05-26T02:21:49.542Z,12.18
2019-05-26T02:22:49.537Z,12.20
2019-05-26T02:23:49.534Z,12.17
2019-05-26T02:24:49.511Z,12.14
2019-05-26T02:25:49.507Z,12.14
2019-05-26T02:26:49.486Z,12.15
2019-05-26T02:27:49.494Z,12.15
2019-05-26T02:28:49.497Z,12.15
2019-05-26T02:29:49.448Z,12.14
2019-05-26T02:30:49.437Z,12.12
2019-05-26T02:31:49.450Z,12.11
2019-05-26T02:32:49.429Z,12.10
2019-05-26T02:33:49.446Z,12.11
2019-05-26T02:34:49.408Z,12.11
2019-05-26T02:35:49.395Z,12.12
2019-05-26T02:36:49.395Z,12.14
2019-05-26T02:37:49.375Z,12.17
2019-05-26T02:39:00.984Z,12.15
2019-05-26T02:39:50.376Z,12.12
2019-05-26T02:40:49.343Z,12.14
2019-05-26T02:41:49.327Z,12.17
2019-05-26T02:42:49.423Z,12.17
2019-05-26T02:43:49.299Z,12.15
2019-05-26T02:44:49.309Z,12.17
2019-05-26T02:45:49.285Z,12.17
2019-05-26T02:46:49.382Z,12.17
2019-05-26T02:47:49.273Z,12.15
2019-05-26T02:48:49.274Z,12.15
2019-05-26T02:49:49.237Z,12.18
2019-05-26T02:50:49.214Z,12.18
2019-05-26T02:51:49.198Z,12.18
2019-05-26T02:52:49.228Z,12.15
2019-05-26T02:53:49.227Z,12.12
2019-05-26T02:54:49.200Z,12.10
2019-05-26T02:55:49.175Z,12.07
2019-05-26T02:56:49.164Z,12.02
2019-05-26T02:57:49.152Z,12.02
2019-05-26T02:58:49.135Z,12.03
2019-05-26T02:59:49.175Z,12.05
2019-05-26T03:00:49.091Z,12.07
2019-05-26T03:02:02.010Z,12.11
2019-05-26T03:02:50.080Z,12.11
2019-05-26T03:03:49.096Z,12.10
2019-05-26T03:04:49.098Z,12.10
2019-05-26T03:05:49.037Z,12.08
2019-05-26T03:06:49.052Z,12.11
2019-05-26T03:07:49.028Z,12.10
2019-05-26T03:08:49.023Z,12.08
2019-05-26T03:09:49.026Z,12.08
2019-05-26T03:10:48.997Z,12.05
2019-05-26T03:11:49.000Z,12.00
2019-05-26T03:12:48.980Z,11.97
2019-05-26T03:13:48.963Z,11.93
2019-05-26T03:14:48.984Z,11.88
2019-05-26T03:15:48.944Z,11.86
2019-05-26T03:16:48.927Z,11.85
2019-05-26T03:17:48.920Z,11.85
2019-05-26T03:18:48.896Z,11.81
2019-05-26T03:19:48.932Z,11.78
2019-05-26T03:20:48.890Z,11.77
2019-05-26T03:21:48.890Z,11.73
2019-05-26T03:22:48.885Z,11.73
2019-05-26T03:23:48.854Z,11.74
2019-05-26T03:24:48.865Z,11.74
2019-05-26T03:25:48.834Z,11.73
2019-05-26T03:26:48.829Z,11.68
2019-05-26T03:27:48.830Z,11.63
2019-05-26T03:28:48.796Z,11.60
2019-05-26T03:29:48.811Z,11.58
2019-05-26T03:30:48.792Z,11.53
2019-05-26T03:31:48.781Z,11.51
2019-05-26T03:32:48.781Z,11.49
2019-05-26T03:33:48.749Z,11.49
2019-05-26T03:34:48.779Z,11.52
2019-05-26T03:35:48.742Z,11.55
2019-05-26T03:36:48.702Z,11.58
2019-05-26T03:37:48.722Z,11.59
2019-05-26T03:38:48.683Z,11.59
2019-05-26T03:39:48.693Z,11.59
2019-05-26T03:40:48.665Z,11.59
2019-05-26T03:41:48.669Z,11.59
2019-05-26T03:42:48.643Z,11.58
2019-05-26T03:43:48.634Z,11.56
2019-05-26T03:44:48.623Z,11.53
2019-05-26T03:45:48.613Z,11.51
2019-05-26T03:46:48.605Z,11.45
2019-05-26T03:47:48.587Z,11.43
2019-05-26T03:48:48.582Z,11.38
2019-05-26T03:49:48.563Z,11.33
2019-05-26T03:50:48.562Z,11.26
2019-05-26T03:51:48.561Z,11.23
2019-05-26T03:52:48.534Z,11.23
2019-05-26T03:53:48.594Z,11.20
2019-05-26T03:54:48.501Z,11.18
2019-05-26T03:55:48.545Z,11.18
2019-05-26T03:56:48.485Z,11.13
2019-05-26T03:57:48.469Z,11.12
2019-05-26T03:58:48.481Z,11.10
2019-05-26T03:59:48.467Z,11.07
2019-05-26T04:00:48.461Z,11.07
2019-05-26T04:01:48.448Z,11.05
2019-05-26T04:02:48.428Z,11.05
2019-05-26T04:03:48.420Z,11.05
2019-05-26T04:04:48.429Z,11.05
2019-05-26T04:05:48.423Z,11.08
2019-05-26T04:06:48.361Z,11.10
2019-05-26T04:07:48.367Z,11.13
2019-05-26T04:08:48.340Z,11.15
2019-05-26T04:10:03.871Z,11.19
2019-05-26T04:10:49.371Z,11.25
2019-05-26T04:11:48.311Z,11.27
2019-05-26T04:12:48.322Z,11.34
2019-05-26T04:13:48.303Z,11.41
2019-05-26T04:14:48.401Z,11.53
2019-05-26T04:15:48.297Z,11.68
2019-05-26T04:16:48.303Z,11.78
2019-05-26T04:17:48.241Z,11.83
2019-05-26T04:18:48.248Z,11.88
2019-05-26T04:19:48.261Z,11.89
2019-05-26T04:20:48.268Z,11.97
2019-05-26T04:21:48.209Z,12.00
2019-05-26T04:22:48.211Z,12.07
2019-05-26T04:23:48.195Z,12.10
2019-05-26T04:24:48.176Z,12.18
2019-05-26T04:25:48.185Z,12.26
2019-05-26T04:26:48.170Z,12.30
2019-05-26T04:27:48.139Z,12.33
2019-05-26T04:28:48.142Z,12.35
2019-05-26T04:29:48.141Z,12.36
2019-05-26T04:30:48.135Z,12.36
2019-05-26T04:31:48.096Z,12.36
2019-05-26T04:32:48.086Z,12.39
2019-05-26T04:33:48.085Z,12.43
2019-05-26T04:34:48.067Z,12.50
2019-05-26T04:35:48.086Z,12.54
2019-05-26T04:36:48.063Z,12.62
2019-05-26T04:37:48.033Z,12.65
2019-05-26T04:38:48.037Z,12.68
2019-05-26T04:39:48.015Z,12.68
2019-05-26T04:40:48.058Z,12.75
2019-05-26T04:41:47.996Z,12.80
2019-05-26T04:42:47.979Z,12.90
2019-05-26T04:43:47.966Z,12.95
2019-05-26T04:44:47.970Z,13.02
2019-05-26T04:45:47.970Z,13.08
2019-05-26T04:46:47.932Z,13.12
2019-05-26T04:47:47.942Z,13.16
2019-05-26T04:48:47.934Z,13.19
2019-05-26T04:49:47.907Z,13.17
2019-05-26T04:50:47.906Z,13.17
2019-05-26T04:51:47.929Z,13.16
2019-05-26T04:53:04.691Z,13.16
2019-05-26T04:53:48.851Z,13.12
2019-05-26T04:54:47.868Z,13.16
2019-05-26T04:55:47.845Z,13.20
2019-05-26T04:56:47.862Z,13.23
2019-05-26T04:57:47.816Z,13.23
2019-05-26T04:58:47.836Z,13.21
2019-05-26T04:59:47.802Z,13.24
2019-05-26T05:00:47.801Z,13.33
2019-05-26T05:01:47.797Z,13.45
2019-05-26T05:02:47.791Z,13.58
2019-05-26T05:03:47.752Z,13.73
2019-05-26T05:04:47.749Z,13.83
2019-05-26T05:05:47.727Z,13.86
2019-05-26T05:06:47.754Z,13.89
2019-05-26T05:07:47.721Z,13.94
2019-05-26T05:08:47.698Z,13.89
2019-05-26T05:09:47.696Z,13.95
2019-05-26T05:10:47.678Z,13.98
2019-05-26T05:11:47.701Z,14.00
2019-05-26T05:12:47.647Z,14.00
2019-05-26T05:13:47.639Z,14.08
2019-05-26T05:14:47.640Z,14.18
2019-05-26T05:15:47.627Z,14.28
2019-05-26T05:16:47.646Z,14.33
2019-05-26T05:17:47.598Z,14.43
2019-05-26T05:18:47.591Z,14.38
2019-05-26T05:19:47.586Z,14.48
2019-05-26T05:20:47.591Z,14.51
2019-05-26T05:21:47.588Z,14.58
2019-05-26T05:22:47.538Z,14.68
2019-05-26T05:23:47.558Z,14.78
2019-05-26T05:24:47.526Z,14.77
2019-05-26T05:25:47.505Z,14.71
2019-05-26T05:26:47.531Z,14.71
2019-05-26T05:27:47.488Z,14.62
2019-05-26T05:28:47.481Z,14.59
2019-05-26T05:29:47.458Z,14.70
2019-05-26T05:30:47.457Z,14.78
2019-05-26T05:31:47.478Z,14.85
2019-05-26T05:32:47.425Z,15.02
2019-05-26T05:33:47.414Z,15.07
2019-05-26T05:34:47.421Z,15.17
2019-05-26T05:35:47.411Z,15.36
2019-05-26T05:36:47.406Z,15.47
2019-05-26T05:37:47.388Z,15.57
2019-05-26T05:38:47.374Z,15.63
2019-05-26T05:39:47.352Z,15.55
2019-05-26T05:40:59.123Z,15.59
2019-05-26T05:41:48.353Z,15.69
2019-05-26T05:42:47.314Z,15.75
2019-05-26T05:43:47.320Z,15.59
2019-05-26T05:44:47.302Z,15.60
2019-05-26T05:45:47.294Z,15.73
2019-05-26T05:46:47.308Z,15.84
2019-05-26T05:47:47.260Z,15.87
2019-05-26T05:48:47.252Z,15.92
2019-05-26T05:49:47.244Z,15.76
2019-05-26T05:50:47.233Z,15.66
2019-05-26T05:51:47.255Z,15.69
2019-05-26T05:52:47.209Z,15.76
2019-05-26T05:53:47.220Z,15.91
2019-05-26T05:54:47.200Z,16.16
2019-05-26T05:55:47.186Z,16.40
2019-05-26T05:56:47.279Z,16.62
2019-05-26T05:57:47.150Z,16.87
2019-05-26T05:58:47.161Z,16.92
2019-05-26T05:59:47.140Z,17.23
2019-05-26T06:00:47.140Z,17.80
2019-05-26T06:01:47.131Z,18.34
2019-05-26T06:02:47.119Z,19.41
2019-05-26T06:03:47.083Z,19.94
2019-05-26T06:04:47.081Z,20.33
2019-05-26T06:05:47.082Z,20.66
2019-05-26T06:06:47.084Z,21.10
2019-05-26T06:07:47.070Z,21.35
2019-05-26T06:08:47.045Z,21.53
2019-05-26T06:09:47.024Z,21.07
2019-05-26T06:10:47.032Z,20.85
2019-05-26T06:11:47.026Z,21.32
2019-05-26T06:12:47.056Z,21.62
2019-05-26T06:13:46.986Z,21.35
2019-05-26T06:14:46.990Z,21.43
2019-05-26T06:15:46.959Z,22.49
2019-05-26T06:16:46.981Z,22.80
2019-05-26T06:17:46.943Z,22.83
2019-05-26T06:18:46.931Z,23.11
2019-05-26T06:19:46.915Z,23.51
2019-05-26T06:20:46.933Z,23.81
2019-05-26T06:21:46.953Z,24.28
2019-05-26T06:22:46.899Z,23.71
2019-05-26T06:23:46.882Z,23.74
2019-05-26T06:24:46.866Z,24.24
2019-05-26T06:25:46.852Z,24.62
2019-05-26T06:26:46.873Z,25.06
2019-05-26T06:27:46.844Z,25.34
2019-05-26T06:28:46.845Z,24.03
2019-05-26T06:29:58.515Z,23.28
2019-05-26T06:30:47.835Z,23.20
2019-05-26T06:31:46.804Z,23.13
2019-05-26T06:32:46.807Z,23.34
2019-05-26T06:33:46.775Z,23.14
2019-05-26T06:34:46.801Z,23.52
2019-05-26T06:35:46.810Z,23.92
2019-05-26T06:36:46.758Z,23.77
2019-05-26T06:37:46.757Z,24.11
2019-05-26T06:38:46.725Z,24.66
2019-05-26T06:39:46.717Z,25.00
2019-05-26T06:40:46.717Z,24.44
2019-05-26T06:41:46.742Z,24.43
2019-05-26T06:42:46.694Z,25.06
2019-05-26T06:43:46.683Z,24.62
2019-05-26T06:44:53.717Z,24.66
2019-05-26T06:45:47.669Z,24.13
2019-05-26T06:46:46.675Z,24.13
2019-05-26T06:47:46.635Z,22.62
2019-05-26T06:48:46.643Z,22.23
2019-05-26T06:49:46.625Z,22.51
2019-05-26T06:50:46.617Z,23.66
2019-05-26T06:51:46.621Z,24.21
2019-05-26T06:52:46.594Z,24.06
2019-05-26T06:53:46.583Z,24.59
2019-05-26T06:54:46.579Z,24.11
2019-05-26T06:55:46.571Z,23.55
2019-05-26T06:56:46.582Z,23.73
2019-05-26T06:57:46.547Z,24.40
2019-05-26T06:58:46.544Z,24.69
2019-05-26T06:59:46.527Z,24.74
2019-05-26T07:00:46.513Z,25.16
2019-05-26T07:01:46.534Z,25.74
2019-05-26T07:02:46.505Z,25.71
2019-05-26T07:03:46.511Z,24.77
2019-05-26T07:04:46.466Z,24.71
2019-05-26T07:05:46.453Z,24.66
2019-05-26T07:06:46.484Z,24.41
2019-05-26T07:07:46.445Z,24.89
2019-05-26T07:08:46.435Z,25.03
2019-05-26T07:09:46.438Z,25.11
2019-05-26T07:10:46.416Z,25.31
2019-05-26T07:11:54.208Z,25.61
2019-05-26T07:12:47.398Z,25.81
2019-05-26T07:13:46.388Z,25.89
2019-05-26T07:14:46.377Z,25.96
2019-05-26T07:15:46.367Z,26.29
2019-05-26T07:16:46.408Z,26.71
2019-05-26T07:17:46.379Z,26.85
2019-05-26T07:18:46.338Z,26.81
2019-05-26T07:19:46.329Z,27.16
2019-05-26T07:20:46.328Z,27.20
2019-05-26T07:21:46.356Z,27.11
2019-05-26T07:22:46.312Z,26.29
2019-05-26T07:23:46.300Z,26.26
2019-05-26T07:24:46.287Z,26.37
2019-05-26T07:25:46.315Z,26.51
2019-05-26T07:26:46.289Z,25.54
2019-05-26T07:27:46.253Z,25.34
2019-05-26T07:28:46.253Z,26.34
2019-05-26T07:29:46.228Z,27.01
2019-05-26T07:30:46.240Z,27.05
2019-05-26T07:31:46.212Z,26.39
2019-05-26T07:32:46.227Z,26.61
2019-05-26T07:33:46.200Z,26.79
2019-05-26T07:34:46.176Z,26.76
2019-05-26T07:35:49.676Z,27.03
2019-05-26T07:36:46.186Z,27.29
2019-05-26T07:37:46.190Z,27.66
2019-05-26T07:38:46.146Z,27.58
2019-05-26T07:39:46.159Z,26.83
2019-05-26T07:40:46.121Z,27.05
2019-05-26T07:41:46.109Z,26.82
2019-05-26T07:42:46.155Z,26.82
2019-05-26T07:43:46.090Z,27.30
2019-05-26T07:44:46.105Z,27.26
2019-05-26T07:45:46.083Z,27.38
2019-05-26T07:46:46.066Z,28.13
2019-05-26T07:47:46.088Z,28.64
2019-05-26T07:48:46.048Z,28.60
2019-05-26T07:49:46.057Z,28.34
2019-05-26T07:50:46.038Z,28.04
2019-05-26T07:51:46.020Z,28.16
2019-05-26T07:52:46.022Z,28.25
2019-05-26T07:53:45.996Z,28.22
2019-05-26T07:54:45.992Z,27.83
2019-05-26T07:55:45.978Z,28.09
2019-05-26T07:56:46.000Z,27.48
2019-05-26T07:57:46.008Z,26.89
2019-05-26T07:58:45.968Z,27.11
2019-05-26T07:59:45.967Z,27.53
2019-05-26T08:00:45.958Z,26.82
2019-05-26T08:01:45.928Z,27.71
2019-05-26T08:02:45.949Z,28.38
2019-05-26T08:03:45.912Z,28.35
2019-05-26T08:04:45.899Z,27.73
2019-05-26T08:05:45.898Z,27.85
2019-05-26T08:06:45.950Z,28.47
2019-05-26T08:07:45.935Z,29.15
2019-05-26T08:08:45.867Z,30.05
2019-05-26T08:09:45.854Z,30.56
2019-05-26T08:10:45.837Z,31.22
2019-05-26T08:11:45.836Z,30.70
2019-05-26T08:12:45.871Z,30.32
2019-05-26T08:13:45.848Z,30.20
2019-05-26T08:14:45.808Z,29.81
2019-05-26T08:15:45.807Z,29.37
2019-05-26T08:16:45.821Z,29.90
2019-05-26T08:17:45.793Z,30.40
2019-05-26T08:18:45.782Z,30.61
2019-05-26T08:19:45.764Z,30.70
2019-05-26T08:20:45.769Z,28.83
2019-05-26T08:21:45.752Z,28.19
2019-05-26T08:22:45.765Z,28.40
2019-05-26T08:23:45.728Z,28.04
2019-05-26T08:24:45.700Z,28.25
2019-05-26T08:25:45.708Z,28.01
2019-05-26T08:26:45.709Z,27.47
2019-05-26T08:27:45.724Z,27.72
2019-05-26T08:28:45.695Z,27.95
2019-05-26T08:29:45.673Z,28.62
2019-05-26T08:30:45.693Z,29.00
2019-05-26T08:31:45.658Z,29.13
2019-05-26T08:32:45.670Z,29.43
2019-05-26T08:33:45.640Z,29.64
2019-05-26T08:34:45.645Z,29.15
2019-05-26T08:35:45.670Z,28.57
2019-05-26T08:36:45.603Z,28.28
2019-05-26T08:37:45.642Z,28.49
2019-05-26T08:38:45.598Z,28.68
2019-05-26T08:39:48.281Z,29.47
2019-05-26T08:40:45.583Z,29.64
2019-05-26T08:41:45.559Z,29.57
2019-05-26T08:42:45.583Z,30.01
2019-05-26T08:43:45.547Z,29.98
2019-05-26T08:44:45.560Z,30.13
2019-05-26T08:45:45.538Z,29.76
2019-05-26T08:46:45.509Z,30.67
2019-05-26T08:47:45.529Z,30.70
2019-05-26T08:48:45.532Z,30.33
2019-05-26T08:49:45.498Z,30.70
2019-05-26T08:50:45.485Z,30.24
2019-05-26T08:51:45.475Z,30.03
2019-05-26T08:52:45.477Z,30.16
2019-05-26T08:53:45.483Z,28.59
2019-05-26T08:54:45.446Z,28.93
2019-05-26T08:55:45.426Z,29.69
2019-05-26T08:56:45.418Z,28.15
2019-05-26T08:57:45.419Z,27.93
2019-05-26T08:58:45.442Z,28.04
2019-05-26T08:59:45.405Z,28.47
2019-05-26T09:00:45.391Z,28.84
2019-05-26T09:01:45.381Z,29.09
2019-05-26T09:02:45.379Z,29.37
2019-05-26T09:03:45.381Z,29.20
2019-05-26T09:04:45.361Z,28.06
2019-05-26T09:05:45.355Z,27.86
2019-05-26T09:06:45.365Z,28.90
2019-05-26T09:07:45.341Z,29.59
2019-05-26T09:08:45.344Z,30.52
2019-05-26T09:09:45.324Z,30.44
2019-05-26T09:10:45.290Z,30.89
2019-05-26T09:11:45.287Z,30.38
2019-05-26T09:12:59.585Z,30.65
2019-05-26T09:13:46.292Z,30.85
2019-05-26T09:14:45.285Z,30.29
2019-05-26T09:15:45.251Z,30.70
2019-05-26T09:16:45.271Z,30.58
2019-05-26T09:17:45.219Z,31.10
2019-05-26T09:18:45.252Z,31.59
2019-05-26T09:19:45.228Z,31.41
2019-05-26T09:20:45.219Z,31.20
2019-05-26T09:21:45.217Z,30.62
2019-05-26T09:22:45.218Z,30.69
2019-05-26T09:23:45.211Z,31.74
2019-05-26T09:24:45.171Z,31.64
2019-05-26T09:25:46.680Z,31.04
2019-05-26T09:26:45.177Z,31.14
2019-05-26T09:27:45.156Z,30.96
2019-05-26T09:28:45.172Z,31.23
2019-05-26T09:29:45.127Z,31.90
2019-05-26T09:30:45.119Z,32.22
2019-05-26T09:31:45.101Z,31.85
2019-05-26T09:32:45.098Z,32.07
2019-05-26T09:33:45.136Z,32.15
2019-05-26T09:34:45.108Z,31.82
2019-05-26T09:35:45.090Z,31.89
2019-05-26T09:36:45.059Z,32.24
2019-05-26T09:37:45.085Z,32.75
2019-05-26T09:38:45.079Z,32.00
2019-05-26T09:39:45.055Z,32.31
2019-05-26T09:40:45.019Z,32.44
2019-05-26T09:41:45.044Z,31.85
2019-05-26T09:42:45.004Z,30.58
2019-05-26T09:43:45.054Z,30.73
2019-05-26T09:44:44.998Z,30.10
2019-05-26T09:45:45.000Z,30.61
2019-05-26T09:46:44.964Z,31.57
2019-05-26T09:47:44.990Z,31.98
2019-05-26T09:48:44.992Z,31.67
2019-05-26T09:49:44.932Z,31.15
2019-05-26T09:50:44.955Z,31.07
2019-05-26T09:51:44.933Z,31.13
2019-05-26T09:52:44.924Z,31.30
2019-05-26T09:53:44.937Z,30.70
2019-05-26T09:54:44.901Z,30.99
2019-05-26T09:55:44.891Z,30.83
2019-05-26T09:56:44.882Z,30.18
2019-05-26T09:57:44.871Z,29.69
2019-05-26T09:58:44.909Z,29.77
2019-05-26T09:59:44.859Z,30.51
2019-05-26T10:00:44.849Z,30.36
2019-05-26T10:01:44.828Z,30.85
2019-05-26T10:02:44.826Z,30.77
2019-05-26T10:03:44.839Z,29.20
2019-05-26T10:04:44.815Z,29.30
2019-05-26T10:05:44.796Z,30.01
2019-05-26T10:06:44.791Z,30.46
2019-05-26T10:07:44.843Z,31.05
2019-05-26T10:08:44.790Z,31.55
2019-05-26T10:09:44.753Z,31.90
2019-05-26T10:10:44.731Z,31.55
2019-05-26T10:11:44.760Z,31.72
2019-05-26T10:12:44.748Z,31.78
2019-05-26T10:13:44.749Z,31.98
2019-05-26T10:14:47.679Z,31.93
2019-05-26T10:15:44.697Z,31.04
2019-05-26T10:16:44.686Z,30.10
2019-05-26T10:17:44.670Z,29.98
2019-05-26T10:18:44.692Z,30.16
2019-05-26T10:19:44.665Z,30.46
2019-05-26T10:20:44.652Z,31.18
2019-05-26T10:21:44.661Z,31.35
2019-05-26T10:22:44.659Z,31.39
2019-05-26T10:23:44.625Z,31.81
2019-05-26T10:24:44.649Z,32.19
2019-05-26T10:25:44.614Z,32.02
2019-05-26T10:26:44.591Z,31.66
2019-05-26T10:27:44.581Z,31.17
2019-05-26T10:28:44.584Z,30.96
2019-05-26T10:29:44.583Z,31.37
2019-05-26T10:30:44.560Z,30.86
2019-05-26T10:31:44.543Z,31.20
2019-05-26T10:32:44.533Z,31.18
2019-05-26T10:33:44.501Z,31.37
2019-05-26T10:34:44.559Z,31.81
2019-05-26T10:35:44.504Z,32.44
2019-05-26T10:36:44.498Z,32.20
2019-05-26T10:37:44.484Z,31.11
2019-05-26T10:38:44.473Z,31.00
2019-05-26T10:39:45.283Z,31.11
2019-05-26T10:40:44.453Z,31.60
2019-05-26T10:41:44.457Z,32.37
2019-05-26T10:42:44.435Z,32.23
2019-05-26T10:43:47.470Z,31.60
2019-05-26T10:44:44.446Z,31.13
2019-05-26T10:45:44.441Z,30.80
2019-05-26T10:46:44.405Z,30.65
2019-05-26T10:47:44.392Z,30.21
2019-05-26T10:48:44.446Z,28.46
2019-05-26T10:49:44.404Z,28.01
2019-05-26T10:50:44.355Z,27.78
2019-05-26T10:51:44.375Z,27.94
2019-05-26T10:52:44.335Z,28.13
2019-05-26T10:53:44.333Z,27.67
2019-05-26T10:54:44.336Z,27.55
2019-05-26T10:55:44.306Z,27.20
2019-05-26T10:56:44.302Z,27.19
2019-05-26T10:57:44.313Z,27.28
2019-05-26T10:58:44.282Z,27.25
2019-05-26T10:59:44.324Z,26.56
2019-05-26T11:00:44.265Z,26.01
2019-05-26T11:01:44.281Z,25.56
2019-05-26T11:02:44.238Z,25.06
2019-05-26T11:03:44.235Z,24.79
2019-05-26T11:04:44.245Z,24.55
2019-05-26T11:05:44.229Z,24.25
2019-05-26T11:06:44.249Z,24.00
2019-05-26T11:07:44.184Z,23.94
2019-05-26T11:08:44.168Z,24.03
2019-05-26T11:09:44.203Z,24.13
2019-05-26T11:10:44.164Z,24.22
2019-05-26T11:11:44.155Z,24.13
2019-05-26T11:12:44.175Z,24.00
2019-05-26T11:13:44.128Z,24.01
2019-05-26T11:14:44.153Z,24.28
2019-05-26T11:15:44.115Z,24.48
2019-05-26T11:16:44.140Z,24.59
2019-05-26T11:17:44.113Z,24.36
2019-05-26T11:18:44.121Z,23.89
2019-05-26T11:19:44.120Z,24.04
2019-05-26T11:20:44.050Z,24.00
2019-05-26T11:21:44.076Z,24.24
2019-05-26T11:22:44.039Z,24.38
2019-05-26T11:23:44.062Z,24.56
2019-05-26T11:24:44.035Z,24.62
2019-05-26T11:25:44.040Z,24.71
2019-05-26T11:26:43.991Z,24.40
2019-05-26T11:27:43.999Z,24.03
2019-05-26T11:28:43.979Z,23.73
2019-05-26T11:29:43.987Z,23.62
2019-05-26T11:30:43.984Z,23.54
2019-05-26T11:31:43.940Z,23.66
2019-05-26T11:32:43.970Z,23.48
2019-05-26T11:33:43.918Z,23.21
2019-05-26T11:34:43.940Z,23.17
2019-05-26T11:35:43.928Z,23.08
2019-05-26T11:36:43.879Z,23.08
2019-05-26T11:37:43.860Z,23.16
2019-05-26T11:38:43.896Z,23.11
2019-05-26T11:39:43.864Z,22.91
2019-05-26T11:40:43.870Z,22.76
2019-05-26T11:41:43.819Z,22.67
2019-05-26T11:42:45.043Z,22.53
2019-05-26T11:43:43.815Z,22.38
2019-05-26T11:44:43.799Z,22.37
2019-05-26T11:45:43.815Z,22.22
2019-05-26T11:46:43.819Z,22.18
2019-05-26T11:47:43.777Z,22.25
2019-05-26T11:48:43.738Z,22.37
2019-05-26T11:49:43.758Z,22.23
2019-05-26T11:50:43.751Z,22.06
2019-05-26T11:51:43.730Z,22.12
2019-05-26T11:52:43.720Z,22.21
2019-05-26T11:53:43.707Z,22.28
2019-05-26T11:54:43.697Z,22.38
2019-05-26T11:55:43.711Z,22.56
2019-05-26T11:56:43.674Z,22.58
2019-05-26T11:57:43.648Z,22.68
2019-05-26T11:58:43.658Z,22.76
2019-05-26T11:59:47.135Z,22.88
2019-05-26T12:00:43.651Z,23.06
2019-05-26T12:01:43.610Z,23.20
2019-05-26T12:02:43.621Z,23.26
2019-05-26T12:03:43.634Z,23.32
2019-05-26T12:04:43.596Z,23.44
2019-05-26T12:05:43.611Z,23.47
2019-05-26T12:06:43.588Z,23.48
2019-05-26T12:07:43.545Z,23.33
2019-05-26T12:08:43.539Z,23.21
2019-05-26T12:09:43.539Z,23.25
2019-05-26T12:10:43.538Z,23.52
2019-05-26T12:11:43.517Z,23.71
2019-05-26T12:12:43.497Z,23.74
2019-05-26T12:13:43.482Z,23.74
2019-05-26T12:14:43.514Z,23.91
2019-05-26T12:15:43.469Z,24.13
2019-05-26T12:16:43.519Z,24.43
2019-05-26T12:17:43.459Z,24.68
2019-05-26T12:18:43.448Z,24.92
2019-05-26T12:19:43.423Z,25.07
2019-05-26T12:20:43.431Z,25.33
2019-05-26T12:21:43.432Z,25.58
2019-05-26T12:22:43.384Z,25.71
2019-05-26T12:23:43.366Z,25.52
2019-05-26T12:24:43.410Z,25.68
2019-05-26T12:25:43.360Z,25.74
2019-05-26T12:26:43.378Z,25.92
2019-05-26T12:27:43.336Z,25.86
2019-05-26T12:28:43.331Z,25.62
2019-05-26T12:29:43.317Z,25.46
2019-05-26T12:30:43.323Z,25.34
2019-05-26T12:31:43.327Z,25.56
2019-05-26T12:32:43.329Z,25.71
2019-05-26T12:33:43.280Z,25.83
2019-05-26T12:34:43.258Z,25.76
2019-05-26T12:35:43.249Z,25.83
2019-05-26T12:36:43.254Z,25.89
2019-05-26T12:37:43.241Z,25.33
2019-05-26T12:38:43.224Z,25.25
2019-05-26T12:39:43.203Z,25.19
2019-05-26T12:40:43.198Z,25.09
2019-05-26T12:41:43.219Z,25.11
2019-05-26T12:42:43.188Z,25.09
2019-05-26T12:43:43.169Z,24.94
2019-05-26T12:44:49.651Z,24.79
2019-05-26T12:45:44.144Z,24.37
2019-05-26T12:46:43.199Z,24.19
2019-05-26T12:47:43.115Z,24.09
2019-05-26T12:48:43.114Z,23.96
2019-05-26T12:49:43.109Z,23.74
2019-05-26T12:50:43.090Z,23.79
2019-05-26T12:51:43.117Z,23.77
2019-05-26T12:52:43.077Z,23.82